This is the latest recevied weather packets stored in our database for station/object HA5KDQ-10. If no packets are shown the sender has not sent any weather packets the latest 10 day(s).
| Time | Temp. | Humidity | Pressure | Rain* | Wind** | Luminosity | Snow |
|---|---|---|---|---|---|---|---|
| 1777756133 | 16.67° C | 31% | 964.9 hPa | - | - | - | - |
| 1777752533 | 17.22° C | 30% | 965.1 hPa | - | - | - | - |
| 1777748931 | 18.33° C | 29% | 964.8 hPa | - | - | - | - |
| 1777745348 | 19.44° C | 27% | 964.2 hPa | - | - | - | - |
| 1777741747 | 21.67° C | 25% | 964 hPa | - | - | - | - |
| 1777738146 | 23.33° C | 23% | 964.4 hPa | - | - | - | - |
| 1777734545 | 23.89° C | 21% | 964.7 hPa | - | - | - | - |
| 1777730945 | 27.22° C | 19% | 965.3 hPa | - | - | - | - |
| 1777727344 | 27.78° C | 19% | 965.7 hPa | - | - | - | - |
| 1777723743 | 28.33° C | 18% | 966.3 hPa | - | - | - | - |
| 1777720142 | 29.44° C | 18% | 966.9 hPa | - | - | - | - |
| 1777716541 | 27.22° C | 20% | 967.4 hPa | - | - | - | - |
| 1777712940 | 29.44° C | 19% | 968 hPa | - | - | - | - |
| 1777709339 | 28.33° C | 20% | 968.3 hPa | - | - | - | - |
| 1777705738 | 26.67° C | 21% | 968.3 hPa | - | - | - | - |
| 1777702137 | 26.67° C | 21% | 968.1 hPa | - | - | - | - |
| 1777698537 | 28.33° C | 19% | 967.9 hPa | - | - | - | - |
| 1777694936 | 18.89° C | 26% | 967.6 hPa | - | - | - | - |
| 1777691335 | 13.33° C | 33% | 967.6 hPa | - | - | - | - |
| 1777669730 | 13.89° C | 36% | 968.1 hPa | - | - | - | - |
| 1777658947 | 15.56° C | 28% | 967.9 hPa | - | - | - | - |
| 1777655347 | 17.78° C | 26% | 967.7 hPa | - | - | - | - |
| 1777651744 | 19.44° C | 25% | 968.2 hPa | - | - | - | - |
| 1777648144 | 21.67° C | 21% | 968.3 hPa | - | - | - | - |
| 1777644543 | 23.33° C | 18% | 968.8 hPa | - | - | - | - |
* Rain since midnight (hover to see other rain measurements)
** Current wind speed in m/s (hover to see current wind gust speed)